createdAt,value
2022-11-23T00:01:27.929Z,2.70
2022-11-23T00:03:57.499Z,2.55
2022-11-23T00:06:25.699Z,2.55
2022-11-23T00:08:54.023Z,2.58
2022-11-23T00:11:22.760Z,2.38
2022-11-23T00:13:50.121Z,2.00
2022-11-23T00:16:24.875Z,1.98
2022-11-23T00:18:56.501Z,2.28
2022-11-23T00:21:24.849Z,2.30
2022-11-23T00:23:51.793Z,2.58
2022-11-23T00:26:19.123Z,1.98
2022-11-23T00:28:46.506Z,1.80
2022-11-23T00:31:18.774Z,1.83
2022-11-23T00:33:50.770Z,2.22
2022-11-23T00:36:17.882Z,3.17
2022-11-23T00:38:45.948Z,2.15
2022-11-23T00:41:15.857Z,2.10
2022-11-23T00:43:43.878Z,1.90
2022-11-23T00:46:23.298Z,1.80
2022-11-23T00:48:52.016Z,2.17
2022-11-23T00:51:23.942Z,2.33
2022-11-23T00:53:51.796Z,1.60
2022-11-23T00:56:19.604Z,1.80
2022-11-23T00:58:51.024Z,1.40
2022-11-23T01:01:21.545Z,2.00
2022-11-23T01:03:51.273Z,1.40
2022-11-23T01:06:24.178Z,2.05
2022-11-23T01:08:54.507Z,1.52
2022-11-23T01:11:23.402Z,1.80
2022-11-23T01:13:50.407Z,1.70
2022-11-23T01:16:24.132Z,1.25
2022-11-23T01:18:59.317Z,1.40
2022-11-23T01:21:28.546Z,1.52
2022-11-23T01:23:55.779Z,1.45
2022-11-23T01:26:23.453Z,1.73
2022-11-23T01:28:50.902Z,1.55
2022-11-23T01:31:20.774Z,1.50
2022-11-23T01:33:47.844Z,1.50
2022-11-23T01:36:17.825Z,1.48
2022-11-23T01:38:45.877Z,1.23
2022-11-23T01:41:25.863Z,1.33
2022-11-23T01:43:54.110Z,1.25
2022-11-23T01:46:21.274Z,1.35
2022-11-23T01:49:02.937Z,1.58
2022-11-23T01:51:42.147Z,1.20
2022-11-23T01:54:41.383Z,1.30
2022-11-23T01:57:12.864Z,1.63
2022-11-23T01:59:40.327Z,1.33
2022-11-23T02:02:07.642Z,1.50
2022-11-23T02:04:39.469Z,1.27
2022-11-23T02:07:07.208Z,1.40
2022-11-23T02:09:36.051Z,1.60
2022-11-23T02:12:03.426Z,1.33
2022-11-23T02:14:30.459Z,1.65
2022-11-23T02:17:00.588Z,1.40
2022-11-23T02:19:36.294Z,1.20
2022-11-23T02:22:08.016Z,1.40
2022-11-23T02:24:41.464Z,1.10
2022-11-23T02:27:10.990Z,1.00
2022-11-23T02:29:38.040Z,1.10
2022-11-23T02:32:05.209Z,1.20
2022-11-23T02:34:32.201Z,1.27
2022-11-23T02:37:00.974Z,1.42
2022-11-23T02:39:38.001Z,1.20
2022-11-23T02:42:06.500Z,1.10
2022-11-23T02:45:18.968Z,1.58
2022-11-23T02:47:46.073Z,1.50
2022-11-23T02:50:13.146Z,1.55
2022-11-23T02:52:43.448Z,1.45
2022-11-23T02:55:11.529Z,1.42
2022-11-23T02:57:38.756Z,1.42
2022-11-23T03:00:06.455Z,1.10
2022-11-23T03:02:33.479Z,1.10
2022-11-23T03:05:00.475Z,1.30
2022-11-23T03:07:27.523Z,1.10
2022-11-23T03:09:54.584Z,1.20
2022-11-23T03:12:21.578Z,1.00
2022-11-23T03:14:48.640Z,1.17
2022-11-23T03:17:17.660Z,1.30
2022-11-23T03:19:45.636Z,1.67
2022-11-23T03:22:13.621Z,1.15
2022-11-23T03:24:40.693Z,1.15
2022-11-23T03:27:11.457Z,1.40
2022-11-23T03:29:40.474Z,1.20
2022-11-23T03:32:12.325Z,1.20
2022-11-23T03:34:42.066Z,1.58
2022-11-23T03:37:09.200Z,1.10
2022-11-23T03:39:36.800Z,1.63
2022-11-23T03:42:22.323Z,1.60
2022-11-23T03:44:49.521Z,1.30
2022-11-23T03:47:16.658Z,1.42
2022-11-23T03:49:43.822Z,1.20
2022-11-23T03:52:10.837Z,1.33
2022-11-23T03:54:37.805Z,1.30
2022-11-23T03:57:04.998Z,1.25
2022-11-23T03:59:33.194Z,1.35
2022-11-23T04:02:00.599Z,1.38
2022-11-23T04:04:32.183Z,1.33
2022-11-23T04:07:06.696Z,1.30
2022-11-23T04:09:39.339Z,1.50
2022-11-23T04:12:06.847Z,1.42
2022-11-23T04:14:36.731Z,1.75
2022-11-23T04:17:04.424Z,1.20
2022-11-23T04:19:32.020Z,1.45
2022-11-23T04:22:00.516Z,0.90
2022-11-23T04:24:32.732Z,1.17
2022-11-23T04:27:02.973Z,1.38
2022-11-23T04:29:30.416Z,1.30
2022-11-23T04:31:57.912Z,1.58
2022-11-23T04:34:26.065Z,1.33
2022-11-23T04:36:54.281Z,1.40
2022-11-23T04:39:27.750Z,1.20
2022-11-23T04:42:11.540Z,1.50
2022-11-23T04:44:38.743Z,1.60
2022-11-23T04:47:07.832Z,0.98
2022-11-23T04:49:37.786Z,1.45
2022-11-23T04:52:07.282Z,1.75
2022-11-23T04:54:40.944Z,1.13
2022-11-23T04:57:09.283Z,1.45
2022-11-23T04:59:37.855Z,1.42
2022-11-23T05:02:05.397Z,1.40
2022-11-23T05:04:46.278Z,1.77
2022-11-23T05:07:14.446Z,1.02
2022-11-23T05:09:44.666Z,1.10
2022-11-23T05:12:18.020Z,2.10
2022-11-23T05:14:44.979Z,2.00
2022-11-23T05:17:16.164Z,1.70
2022-11-23T05:19:45.367Z,1.80
2022-11-23T05:22:13.427Z,1.58
2022-11-23T05:24:41.644Z,2.13
2022-11-23T05:27:11.300Z,1.92
2022-11-23T05:29:39.162Z,2.30
2022-11-23T05:32:07.725Z,1.88
2022-11-23T05:34:34.768Z,2.22
2022-11-23T05:37:04.204Z,2.78
2022-11-23T05:39:31.574Z,2.63
2022-11-23T05:42:00.624Z,5.43
2022-11-23T05:44:40.446Z,4.22
2022-11-23T05:47:12.974Z,2.55
2022-11-23T05:49:40.032Z,3.60
2022-11-23T05:52:07.442Z,3.00
2022-11-23T05:54:36.896Z,2.95
2022-11-23T05:57:10.820Z,2.97
2022-11-23T05:59:41.903Z,2.88
2022-11-23T06:02:12.810Z,2.50
2022-11-23T06:04:39.751Z,3.22
2022-11-23T06:07:10.517Z,2.65
2022-11-23T06:09:58.287Z,2.63
2022-11-23T06:12:27.432Z,2.75
2022-11-23T06:14:54.530Z,3.15
2022-11-23T06:17:24.803Z,3.22
2022-11-23T06:19:54.361Z,3.33
2022-11-23T06:22:21.327Z,3.45
2022-11-23T06:24:58.659Z,3.17
2022-11-23T06:27:36.523Z,3.38
2022-11-23T06:30:09.458Z,4.07
2022-11-23T06:32:37.504Z,4.47
2022-11-23T06:35:04.723Z,4.80
2022-11-23T06:37:35.202Z,4.90
2022-11-23T06:40:02.192Z,4.50
2022-11-23T06:42:44.880Z,4.65
2022-11-23T06:45:22.951Z,4.57
2022-11-23T06:47:56.912Z,4.72
2022-11-23T06:50:24.417Z,4.57
2022-11-23T06:52:56.514Z,4.53
2022-11-23T06:55:33.933Z,4.10
2022-11-23T06:58:00.926Z,3.47
2022-11-23T07:00:28.497Z,4.13
2022-11-23T07:02:56.549Z,3.67
2022-11-23T07:05:27.082Z,4.40
2022-11-23T07:07:54.614Z,5.20
2022-11-23T07:10:26.445Z,3.97
2022-11-23T07:13:07.647Z,3.75
2022-11-23T07:15:36.903Z,4.68
2022-11-23T07:18:05.049Z,3.72
2022-11-23T07:20:32.897Z,4.32
2022-11-23T07:23:06.492Z,4.38
2022-11-23T07:25:35.831Z,5.20
2022-11-23T07:28:05.145Z,5.80
2022-11-23T07:30:34.143Z,5.88
2022-11-23T07:33:09.026Z,6.63
2022-11-23T07:35:38.423Z,6.93
2022-11-23T07:38:08.027Z,4.88
2022-11-23T07:40:39.043Z,5.18
2022-11-23T07:43:11.875Z,4.95
2022-11-23T07:45:39.833Z,4.47
2022-11-23T07:48:09.883Z,4.35
2022-11-23T07:50:38.773Z,5.43
2022-11-23T07:53:07.416Z,5.35
2022-11-23T07:55:34.946Z,5.10
2022-11-23T07:58:02.069Z,5.95
2022-11-23T08:00:30.053Z,4.90
2022-11-23T08:05:47.586Z,7.30
2022-11-23T08:08:14.620Z,5.10
2022-11-23T08:10:46.183Z,4.55
2022-11-23T08:13:14.493Z,4.80
2022-11-23T08:15:41.482Z,6.45
2022-11-23T08:18:09.549Z,4.95
2022-11-23T08:20:36.494Z,5.80
2022-11-23T08:23:03.419Z,5.63
2022-11-23T08:25:30.531Z,7.05
2022-11-23T08:27:59.826Z,5.85
2022-11-23T08:30:28.036Z,6.55
2022-11-23T08:32:55.164Z,5.97
2022-11-23T08:35:22.420Z,6.35
2022-11-23T08:37:49.507Z,7.22
2022-11-23T08:40:20.636Z,7.35
2022-11-23T08:42:50.753Z,5.90
2022-11-23T08:45:18.049Z,6.47
2022-11-23T08:47:45.095Z,6.60
2022-11-23T08:50:12.067Z,7.15
2022-11-23T08:52:39.058Z,7.30
2022-11-23T08:55:06.468Z,6.32
2022-11-23T08:57:33.384Z,6.68
2022-11-23T09:00:00.315Z,6.30
2022-11-23T09:02:27.304Z,6.93
2022-11-23T09:04:54.210Z,7.20
2022-11-23T09:07:21.228Z,6.25
2022-11-23T09:09:48.317Z,7.75
2022-11-23T09:12:15.390Z,7.43
2022-11-23T09:14:42.364Z,6.55
2022-11-23T09:17:09.667Z,6.80
2022-11-23T09:19:36.583Z,6.22
2022-11-23T09:22:03.513Z,6.80
2022-11-23T09:24:30.706Z,6.72
2022-11-23T09:26:58.428Z,6.15
2022-11-23T09:29:25.592Z,7.28
2022-11-23T09:31:53.028Z,5.13
2022-11-23T09:34:19.968Z,5.32
2022-11-23T09:36:47.495Z,5.53
2022-11-23T09:39:14.619Z,5.22
2022-11-23T09:42:06.046Z,6.30
2022-11-23T09:45:08.810Z,5.20
2022-11-23T09:48:16.794Z,4.53
2022-11-23T09:50:43.649Z,3.08
2022-11-23T09:53:18.915Z,3.40
2022-11-23T09:55:53.665Z,3.30
2022-11-23T09:58:22.467Z,3.05
2022-11-23T10:01:01.052Z,3.15
2022-11-23T10:03:28.961Z,2.80
2022-11-23T10:06:21.250Z,3.20
2022-11-23T10:08:51.273Z,2.83
2022-11-23T10:11:39.438Z,3.25
2022-11-23T10:14:33.230Z,3.47
2022-11-23T10:20:09.730Z,3.70
2022-11-23T10:22:45.342Z,2.65
2022-11-23T10:25:18.354Z,3.00
2022-11-23T10:27:47.929Z,3.47
2022-11-23T10:30:16.649Z,3.28
2022-11-23T10:33:20.049Z,2.67
2022-11-23T10:35:47.058Z,3.27
2022-11-23T10:38:19.121Z,4.10
2022-11-23T10:41:10.842Z,4.50
2022-11-23T10:44:07.247Z,3.60
2022-11-23T10:46:34.174Z,3.10
2022-11-23T10:49:13.389Z,3.55
2022-11-23T10:51:40.709Z,3.45
2022-11-23T10:54:25.892Z,3.13
2022-11-23T10:56:54.500Z,3.63
2022-11-23T10:59:30.318Z,3.15
2022-11-23T11:02:20.105Z,2.40
2022-11-23T11:04:49.008Z,2.65
2022-11-23T11:07:20.757Z,3.53
2022-11-23T11:10:01.386Z,2.50
2022-11-23T11:12:30.345Z,2.83
2022-11-23T11:15:15.238Z,2.45
2022-11-23T11:17:42.728Z,3.45
2022-11-23T11:20:28.060Z,2.72
2022-11-23T11:22:57.105Z,2.92
2022-11-23T11:25:31.083Z,3.22
2022-11-23T11:27:59.620Z,3.00
2022-11-23T11:30:50.703Z,3.10
2022-11-23T11:33:34.854Z,3.42
2022-11-23T11:36:04.771Z,2.90
2022-11-23T11:38:36.854Z,2.80
2022-11-23T11:41:11.008Z,3.35
2022-11-23T11:43:53.355Z,3.67
2022-11-23T11:46:37.834Z,3.33
2022-11-23T11:49:12.750Z,3.28
2022-11-23T11:52:14.914Z,3.10
2022-11-23T11:55:01.795Z,3.17
2022-11-23T11:57:44.252Z,4.65
2022-11-23T12:00:17.246Z,4.40
2022-11-23T12:02:55.717Z,5.13
2022-11-23T12:05:27.644Z,4.18
2022-11-23T12:08:02.998Z,4.28
2022-11-23T12:10:55.227Z,4.20
2022-11-23T12:13:37.035Z,4.80
2022-11-23T12:16:18.312Z,4.47
2022-11-23T12:19:03.657Z,5.28
2022-11-23T12:21:39.236Z,6.13
2022-11-23T12:24:25.280Z,4.75
2022-11-23T12:27:21.773Z,5.18
2022-11-23T12:30:13.295Z,4.97
2022-11-23T12:33:01.676Z,4.38
2022-11-23T12:35:59.924Z,5.28
2022-11-23T12:38:48.471Z,5.40
2022-11-23T12:41:43.943Z,6.05
2022-11-23T12:44:44.467Z,5.32
2022-11-23T12:47:28.246Z,5.47
2022-11-23T12:52:47.393Z,6.00
2022-11-23T12:55:29.240Z,5.47
2022-11-23T12:58:06.367Z,5.47
2022-11-23T13:00:45.954Z,5.75
2022-11-23T13:03:35.411Z,5.43
2022-11-23T13:08:50.533Z,5.78
2022-11-23T13:11:28.279Z,6.75
2022-11-23T13:14:12.011Z,6.72
2022-11-23T13:17:13.490Z,6.55
2022-11-23T13:19:52.220Z,7.00
2022-11-23T13:22:21.289Z,7.25
2022-11-23T13:25:10.097Z,8.45
2022-11-23T13:27:48.957Z,6.72
2022-11-23T13:30:59.624Z,7.82
2022-11-23T13:33:37.441Z,7.63
2022-11-23T13:36:10.372Z,7.63
2022-11-23T13:38:42.001Z,7.47
2022-11-23T13:41:33.861Z,8.27
2022-11-23T13:44:19.058Z,7.60
2022-11-23T13:47:04.347Z,8.13
2022-11-23T13:49:59.878Z,8.80
2022-11-23T13:52:29.197Z,7.75
2022-11-23T13:55:05.623Z,7.72
2022-11-23T13:57:40.288Z,7.38
2022-11-23T14:00:44.886Z,8.60
2022-11-23T14:03:42.882Z,7.53
2022-11-23T14:06:40.699Z,7.38
2022-11-23T14:09:32.387Z,6.95
2022-11-23T14:11:59.249Z,8.18
2022-11-23T14:14:34.460Z,7.28
2022-11-23T14:17:19.909Z,8.18
2022-11-23T14:20:09.048Z,7.93
2022-11-23T14:22:51.123Z,7.60
2022-11-23T14:25:37.607Z,8.63
2022-11-23T14:28:41.927Z,7.88
2022-11-23T14:31:12.319Z,8.60
2022-11-23T14:34:16.691Z,9.68
2022-11-23T14:37:08.176Z,9.90
2022-11-23T14:39:56.094Z,8.88
2022-11-23T14:42:27.363Z,10.30
2022-11-23T14:44:56.300Z,10.05
2022-11-23T14:47:31.595Z,9.18
2022-11-23T14:49:58.867Z,9.65
2022-11-23T14:52:32.274Z,10.70
2022-11-23T14:55:02.680Z,9.60
2022-11-23T14:57:40.658Z,10.52
2022-11-23T15:00:23.596Z,10.00
2022-11-23T15:02:51.585Z,11.70
2022-11-23T15:05:27.498Z,11.57
2022-11-23T15:08:02.614Z,10.93
2022-11-23T15:10:40.294Z,11.10
2022-11-23T15:13:25.209Z,14.43
2022-11-23T15:15:55.307Z,20.73
2022-11-23T15:18:38.602Z,13.20
2022-11-23T15:21:26.594Z,12.23
2022-11-23T15:23:57.903Z,11.82
2022-11-23T15:29:34.622Z,12.80
2022-11-23T15:34:51.563Z,15.85
2022-11-23T15:37:19.133Z,16.88
2022-11-23T15:39:47.181Z,17.73
2022-11-23T15:42:23.933Z,18.15
2022-11-23T15:44:54.559Z,17.50
2022-11-23T15:47:27.203Z,15.43
2022-11-23T15:50:03.806Z,15.52
2022-11-23T15:52:36.011Z,15.45
2022-11-23T15:55:09.692Z,15.02
2022-11-23T15:57:38.599Z,13.82
2022-11-23T16:00:06.989Z,13.15
2022-11-23T16:02:39.869Z,12.77
2022-11-23T16:05:19.142Z,13.48
2022-11-23T16:08:00.639Z,13.00
2022-11-23T16:10:33.311Z,15.05
2022-11-23T16:13:02.762Z,13.95
2022-11-23T16:15:34.321Z,13.75
2022-11-23T16:18:02.387Z,15.40
2022-11-23T16:20:30.001Z,14.75
2022-11-23T16:23:00.151Z,14.07
2022-11-23T16:25:29.135Z,15.57
2022-11-23T16:28:04.647Z,14.30
2022-11-23T16:30:39.836Z,12.40
2022-11-23T16:33:14.503Z,14.73
2022-11-23T16:35:41.497Z,13.13
2022-11-23T16:38:08.559Z,19.58
2022-11-23T16:40:35.570Z,14.32
2022-11-23T16:43:04.125Z,15.25
2022-11-23T16:45:31.987Z,13.85
2022-11-23T16:48:01.167Z,12.02
2022-11-23T16:50:30.359Z,12.52
2022-11-23T16:53:01.510Z,13.80
2022-11-23T16:55:28.857Z,13.13
2022-11-23T16:57:56.447Z,12.77
2022-11-23T17:00:24.119Z,11.85
2022-11-23T17:02:51.283Z,10.50
2022-11-23T17:05:21.214Z,10.38
2022-11-23T17:07:48.245Z,9.52
2022-11-23T17:10:15.673Z,9.18
2022-11-23T17:12:51.346Z,9.00
2022-11-23T17:15:20.783Z,8.80
2022-11-23T17:17:47.778Z,8.70
2022-11-23T17:20:15.817Z,8.25
2022-11-23T17:22:43.307Z,9.02
2022-11-23T17:25:14.941Z,9.32
2022-11-23T17:27:43.770Z,11.30
2022-11-23T17:30:17.230Z,8.95
2022-11-23T17:32:44.180Z,8.63
2022-11-23T17:35:11.218Z,7.47
2022-11-23T17:37:38.210Z,7.93
2022-11-23T17:40:06.065Z,7.50
2022-11-23T17:42:33.278Z,6.28
2022-11-23T17:45:00.242Z,6.97
2022-11-23T17:47:29.592Z,7.68
2022-11-23T17:49:57.635Z,6.43
2022-11-23T17:52:25.290Z,6.40
2022-11-23T17:54:52.286Z,7.13
2022-11-23T17:57:23.520Z,7.20
2022-11-23T17:59:50.827Z,6.43
2022-11-23T18:02:19.385Z,5.82
2022-11-23T18:04:47.400Z,6.10
2022-11-23T18:07:15.757Z,5.75
2022-11-23T18:09:42.958Z,5.43
2022-11-23T18:12:10.104Z,4.80
2022-11-23T18:14:37.329Z,4.82
2022-11-23T18:17:04.334Z,4.80
2022-11-23T18:19:31.688Z,4.43
2022-11-23T18:21:59.198Z,4.38
2022-11-23T18:24:26.103Z,4.63
2022-11-23T18:26:53.021Z,4.20
2022-11-23T18:29:19.995Z,5.47
2022-11-23T18:31:46.947Z,5.22
2022-11-23T18:34:13.949Z,4.10
2022-11-23T18:36:40.835Z,4.65
2022-11-23T18:39:07.753Z,5.35
2022-11-23T18:41:34.654Z,4.78
2022-11-23T18:44:01.583Z,4.93
2022-11-23T18:46:29.497Z,4.00
2022-11-23T18:48:57.431Z,4.38
2022-11-23T18:51:24.650Z,4.88
2022-11-23T18:53:53.547Z,4.72
2022-11-23T18:56:21.338Z,4.30
2022-11-23T18:58:48.373Z,4.55
2022-11-23T19:01:21.433Z,4.47
2022-11-23T19:03:50.684Z,4.20
2022-11-23T19:06:19.373Z,4.18
2022-11-23T19:08:51.301Z,5.53
2022-11-23T19:11:21.983Z,5.75
2022-11-23T19:13:51.622Z,5.60
2022-11-23T19:16:21.752Z,5.32
2022-11-23T19:18:56.182Z,4.00
2022-11-23T19:21:25.356Z,4.25
2022-11-23T19:23:54.016Z,4.32
2022-11-23T19:26:21.583Z,4.15
2022-11-23T19:28:48.611Z,4.25
2022-11-23T19:31:21.521Z,4.35
2022-11-23T19:33:49.963Z,3.20
2022-11-23T19:36:19.497Z,3.65
2022-11-23T19:38:48.053Z,2.80
2022-11-23T19:41:15.481Z,3.00
2022-11-23T19:43:42.520Z,3.53
2022-11-23T19:46:14.317Z,5.40
2022-11-23T19:48:42.218Z,6.00
2022-11-23T19:51:14.359Z,6.90
2022-11-23T19:53:42.567Z,6.25
2022-11-23T19:56:19.585Z,6.60
2022-11-23T19:58:50.269Z,7.93
2022-11-23T20:01:19.730Z,8.38
2022-11-23T20:03:48.896Z,6.80
2022-11-23T20:06:21.858Z,5.80
2022-11-23T20:11:21.276Z,7.22
2022-11-23T20:13:48.312Z,7.32
2022-11-23T20:16:18.049Z,6.63
2022-11-23T20:18:46.915Z,7.00
2022-11-23T20:21:16.419Z,5.60
2022-11-23T20:23:44.712Z,5.40
2022-11-23T20:26:19.135Z,5.55
2022-11-23T20:28:50.194Z,5.20
2022-11-23T20:31:22.696Z,4.65
2022-11-23T20:33:50.764Z,5.03
2022-11-23T20:36:20.423Z,4.28
2022-11-23T20:38:48.104Z,5.10
2022-11-23T20:41:20.534Z,4.00
2022-11-23T20:43:49.554Z,4.13
2022-11-23T20:46:26.382Z,4.82
2022-11-23T20:49:04.267Z,5.00
2022-11-23T20:51:31.668Z,5.10
2022-11-23T20:53:59.346Z,5.00
2022-11-23T20:56:27.446Z,5.13
2022-11-23T20:58:57.001Z,5.10
2022-11-23T21:01:24.113Z,4.20
2022-11-23T21:03:53.769Z,4.30
2022-11-23T21:06:21.597Z,4.40
2022-11-23T21:08:50.366Z,4.38
2022-11-23T21:11:36.788Z,5.15
2022-11-23T21:14:11.199Z,4.15
2022-11-23T21:16:58.633Z,4.10
2022-11-23T21:19:31.344Z,3.57
2022-11-23T21:22:02.970Z,3.70
2022-11-23T21:24:30.068Z,4.43
2022-11-23T21:26:57.181Z,3.22
2022-11-23T21:29:24.213Z,3.80
2022-11-23T21:31:51.366Z,3.83
2022-11-23T21:34:21.172Z,4.03
2022-11-23T21:36:49.237Z,4.03
2022-11-23T21:39:16.852Z,4.00
2022-11-23T21:41:44.609Z,3.75
2022-11-23T21:44:12.087Z,4.47
2022-11-23T21:46:40.796Z,3.80
2022-11-23T21:49:08.474Z,3.85
2022-11-23T21:51:36.220Z,3.30
2022-11-23T21:54:06.478Z,3.35
2022-11-23T21:56:34.621Z,4.15
2022-11-23T21:59:02.072Z,3.90
2022-11-23T22:01:31.160Z,4.10
2022-11-23T22:04:02.851Z,4.50
2022-11-23T22:06:30.336Z,4.55
2022-11-23T22:08:59.880Z,4.57
2022-11-23T22:11:29.111Z,5.32
2022-11-23T22:13:57.573Z,5.00
2022-11-23T22:16:30.094Z,5.75
2022-11-23T22:18:57.648Z,5.30
2022-11-23T22:21:27.104Z,4.63
2022-11-23T22:23:54.383Z,4.25
2022-11-23T22:26:22.033Z,4.13
2022-11-23T22:28:50.923Z,3.55
2022-11-23T22:31:25.604Z,3.53
2022-11-23T22:33:53.553Z,3.70
2022-11-23T22:36:23.250Z,3.83
2022-11-23T22:39:01.579Z,4.00
2022-11-23T22:41:30.013Z,4.40
2022-11-23T22:43:57.000Z,5.78
2022-11-23T22:46:25.306Z,5.22
2022-11-23T22:48:53.356Z,5.25
2022-11-23T22:51:22.682Z,5.43
2022-11-23T22:53:58.312Z,3.50
2022-11-23T22:56:26.532Z,3.10
2022-11-23T22:58:53.762Z,3.08
2022-11-23T23:01:23.411Z,3.92
2022-11-23T23:03:58.978Z,4.95
2022-11-23T23:06:28.486Z,4.85
2022-11-23T23:08:58.108Z,5.97
2022-11-23T23:11:28.019Z,4.45
2022-11-23T23:13:55.271Z,4.95
2022-11-23T23:16:22.682Z,4.20
2022-11-23T23:18:49.836Z,4.03
2022-11-23T23:21:19.402Z,4.13
2022-11-23T23:23:48.776Z,4.90
2022-11-23T23:26:17.853Z,3.47
2022-11-23T23:28:45.806Z,3.17
2022-11-23T23:31:16.309Z,2.97
2022-11-23T23:33:45.688Z,3.83
2022-11-23T23:36:17.985Z,4.20
2022-11-23T23:38:44.981Z,3.90
2022-11-23T23:41:13.100Z,3.92
2022-11-23T23:43:40.838Z,3.63
2022-11-23T23:46:10.142Z,3.22
2022-11-23T23:48:39.637Z,3.10
2022-11-23T23:51:14.791Z,3.55
2022-11-23T23:53:42.661Z,3.10
2022-11-23T23:56:15.867Z,3.28
2022-11-23T23:58:43.243Z,3.00
